Yellville, AR (72687)

5:52 AM CDT on August 05, 2015 (GMT -0500)
Marion County Regional | | Change Station
CLOSE
Current Station
Airport
Location: Flippin,
Elevation: 715 ft
Nearby Weather Stations

Elev 715 ft 36.29 °N, 92.59 °W | Updated 17 minutes ago

Overcast
Overcast
70 °F
Feels Like 70 °F
N
0
Wind Variable Wind from North

Today
High -- | Low -- °F
--% Chance of Precip.
Yesterday
High -- | Low -- °F
Precip. -- in
6:20 AM 8:12 PM
Waning Gibbous, 68% visible
Pressure 29.95 in
Visibility 10.0 miles
Clouds Overcast 8500 ft
Dew Point 66 °F
Humidity 88%
Rainfall 0.76 in
Snow Depth Not available.
UV 0 out of 12
Pollen 6.50 out of 12
Air Quality Not available.
Flu Activity Not available.
METAR KFLP 051035Z 00000KT 10SM OVC085 21/19 A2995 RMK AO1

More Conditions Fewer Conditions

Pressure 29.95 in
Visibility 10.0 miles
Clouds Overcast 8500 ft
Dew Point 66 °F
Humidity 88%
Rainfall 0.76 in
Snow Depth Not available.
UV 0 out of 12
Pollen 6.50 out of 12
Air Quality Not available.
Flu Activity Not available.
METAR KFLP 051035Z 00000KT 10SM OVC085 21/19 A2995 RMK AO1

More Conditions Fewer Conditions

10-Day Weather Forecast

×

Almanac

Astronomy

Aug. 05, 2015 Rise Set
Actual Time
Civil Twilight
Nautical Twilight
Astronomical Twilight
Moon
Length of Visible Light
Length of Day
Tomorrow will be .
, % of the Moon is Illuminated

Today's Extremes

State Highs State Lows

Community

WunderPhotos

Upload Photos

1,844,115 photos uploaded!

WunderBlogs® & News

Nearby

Air Quality

  Air Quality AQ Index Pollutant
Not available.

Snow Depth

Station Depth Elevation

Earthquake Activity

City Distance Mag. Time & Date
Minimum magnitude displayed is 2.5.

Coastal Water Temperatures

Place Temperature

Stations

Nearby Weather Stations

Station Location Temp. Windchill Dew Point Humidity Wind Precip. Elev Updated Type